Badlands, SD

12:36 AM MDT on October 01, 2014 (GMT -0600)
Philip | Change Station
CLOSE
Current Station
Airport
Location: Philip,
Elevation: 2208 ft
Nearby Weather Stations

Elev 2208 ft 44.05 °N, 101.60 °W | Updated 4 hours ago

Partly Cloudy
Partly Cloudy
57 °F
Feels Like 57 °F
N
8
Wind Variable Wind from East

Today
High -- | Low -- °F
--% Chance of Precip.
Yesterday
High -- | Low -- °F
Precip. -- in
6:45 AM 6:28 PM
Waxing Crescent, 44% visible
Pressure 29.89 in
Visibility 4.0 miles
Clouds Mostly Cloudy 700 ft
Mostly Cloudy 5000 ft
Overcast 7000 ft
Dew Point 56 °F
Humidity 96%
Rainfall 0.33 in
Snow Depth Not available.
UV 0 out of 12
Pollen .50 out of 12
Air Quality Not available.
Flu Activity Not available.
METAR KPHP 300204Z AUTO 09007KT 4SM TSRA BR BKN007 BKN050 OVC070 14/13 A2989 RMK AO2 LTG DSNT S AND SW TSB0158 P0002 T01390133 $

More Conditions Fewer Conditions

Pressure 29.89 in
Visibility 4.0 miles
Clouds Mostly Cloudy 700 ft
Mostly Cloudy 5000 ft
Overcast 7000 ft
Dew Point 56 °F
Humidity 96%
Rainfall 0.33 in
Snow Depth Not available.
UV 0 out of 12
Pollen .50 out of 12
Air Quality Not available.
Flu Activity Not available.
METAR KPHP 300204Z AUTO 09007KT 4SM TSRA BR BKN007 BKN050 OVC070 14/13 A2989 RMK AO2 LTG DSNT S AND SW TSB0158 P0002 T01390133 $

More Conditions Fewer Conditions

10-Day Weather Forecast

Almanac

Astronomy

Oct. 01, 2014 Rise Set
Actual Time 6:45 AM MDT 6:28 PM MDT
Civil Twilight 6:16 AM MDT 6:57 PM MDT
Nautical Twilight 5:43 AM MDT 7:30 PM MDT
Astronomical Twilight 5:09 AM MDT 8:04 PM MDT
Moon 1:56 PM MDT 11:54 PM MDT
Length of Visible Light 12h 40m
Length of Day
11h 43m
Tomorrow will be 2m 59s shorter.
Waxing Crescent, 44% of the Moon is Illuminated
Today
Waxing Crescent
Oct 1
First Quarter
Oct 8
Full
Oct 15
Last Quarter
Oct 23
New

Today's Extremes

State Highs State Lows

Community

WunderPhotos

Upload Photos

1,757,886 photos uploaded!

Nearby

Snow Depth

Station Depth Elevation
Blind Park 1 in 6890 ft
North Rapid Creek 0 in 6130 ft

Earthquake Activity

City Distance Mag. Time & Date
No recent earthquake activity has been reported nearby.
Minimum magnitude displayed is 2.5.

Coastal Water Temperatures

Place Temperature
No Stations Reporting

Nearby Weather Stations